sensor_id;sensor_type;location;lat;lon;timestamp;P1;P2;P0
73825;PMS5003;64145;55.060;73.168;2023-08-06T00:00:39;28.75;27.75;19.00
73825;PMS5003;64145;55.060;73.168;2023-08-06T00:03:05;31.25;29.00;19.00
73825;PMS5003;64145;55.060;73.168;2023-08-06T00:05:31;29.00;28.00;19.00
73825;PMS5003;64145;55.060;73.168;2023-08-06T00:07:57;28.67;27.00;18.67
73825;PMS5003;64145;55.060;73.168;2023-08-06T00:10:22;29.33;25.67;19.00
73825;PMS5003;64145;55.060;73.168;2023-08-06T00:12:48;28.00;25.33;18.00
73825;PMS5003;64145;55.060;73.168;2023-08-06T00:15:14;27.67;26.00;18.33
73825;PMS5003;64145;55.060;73.168;2023-08-06T00:17:39;29.67;29.00;18.33
73825;PMS5003;64145;55.060;73.168;2023-08-06T00:20:05;27.33;26.67;17.67
73825;PMS5003;64145;55.060;73.168;2023-08-06T00:22:32;33.25;29.00;19.00
73825;PMS5003;64145;55.060;73.168;2023-08-06T00:24:57;30.25;27.00;18.00
73825;PMS5003;64145;55.060;73.168;2023-08-06T00:27:23;30.33;28.67;19.00
73825;PMS5003;64145;55.060;73.168;2023-08-06T00:29:49;31.00;29.00;19.00
73825;PMS5003;64145;55.060;73.168;2023-08-06T00:32:14;29.00;27.50;18.00
73825;PMS5003;64145;55.060;73.168;2023-08-06T00:34:40;30.33;28.33;18.00
73825;PMS5003;64145;55.060;73.168;2023-08-06T00:37:06;28.00;27.33;18.00
73825;PMS5003;64145;55.060;73.168;2023-08-06T00:39:31;31.00;28.33;18.00
73825;PMS5003;64145;55.060;73.168;2023-08-06T00:41:57;30.00;29.00;17.00
73825;PMS5003;64145;55.060;73.168;2023-08-06T00:44:23;28.00;27.50;18.00
73825;PMS5003;64145;55.060;73.168;2023-08-06T00:46:49;28.33;27.00;17.00
73825;PMS5003;64145;55.060;73.168;2023-08-06T00:49:14;34.33;30.33;21.00
73825;PMS5003;64145;55.060;73.168;2023-08-06T00:51:40;42.50;34.00;22.00
73825;PMS5003;64145;55.060;73.168;2023-08-06T00:54:07;50.25;41.75;26.75
73825;PMS5003;64145;55.060;73.168;2023-08-06T00:56:33;50.00;41.00;27.00
73825;PMS5003;64145;55.060;73.168;2023-08-06T00:59:01;52.00;41.75;27.00
73825;PMS5003;64145;55.060;73.168;2023-08-06T01:01:26;52.25;43.00;28.00
73825;PMS5003;64145;55.060;73.168;2023-08-06T01:03:53;50.00;42.00;28.00
73825;PMS5003;64145;55.060;73.168;2023-08-06T01:06:19;40.25;34.50;23.00
73825;PMS5003;64145;55.060;73.168;2023-08-06T01:08:54;28.00;28.00;19.00
73825;PMS5003;64145;55.060;73.168;2023-08-06T01:11:26;24.75;24.75;18.50
73825;PMS5003;64145;55.060;73.168;2023-08-06T01:14:08;24.50;24.00;16.00
73825;PMS5003;64145;55.060;73.168;2023-08-06T01:16:38;23.00;23.00;15.00
73825;PMS5003;64145;55.060;73.168;2023-08-06T01:19:05;25.75;24.50;14.00
73825;PMS5003;64145;55.060;73.168;2023-08-06T01:21:30;28.00;25.00;15.00
73825;PMS5003;64145;55.060;73.168;2023-08-06T01:23:56;27.00;25.00;15.00
73825;PMS5003;64145;55.060;73.168;2023-08-06T01:26:37;27.67;26.00;16.67
73825;PMS5003;64145;55.060;73.168;2023-08-06T01:29:26;32.25;28.00;19.00
73825;PMS5003;64145;55.060;73.168;2023-08-06T01:31:53;29.00;27.00;18.00
73825;PMS5003;64145;55.060;73.168;2023-08-06T01:34:21;28.75;28.75;19.00
73825;PMS5003;64145;55.060;73.168;2023-08-06T01:36:47;36.25;33.00;22.00
73825;PMS5003;64145;55.060;73.168;2023-08-06T01:39:13;45.33;38.00;23.33
73825;PMS5003;64145;55.060;73.168;2023-08-06T01:41:39;45.00;39.00;25.00
73825;PMS5003;64145;55.060;73.168;2023-08-06T01:44:04;46.00;39.00;25.67
73825;PMS5003;64145;55.060;73.168;2023-08-06T01:46:30;33.67;31.67;20.33
73825;PMS5003;64145;55.060;73.168;2023-08-06T01:48:55;30.33;29.00;20.00
73825;PMS5003;64145;55.060;73.168;2023-08-06T01:51:22;29.00;29.00;19.00
73825;PMS5003;64145;55.060;73.168;2023-08-06T01:53:48;27.00;27.00;18.00
73825;PMS5003;64145;55.060;73.168;2023-08-06T01:56:14;36.67;32.00;19.67
73825;PMS5003;64145;55.060;73.168;2023-08-06T01:58:39;36.67;32.00;20.67
73825;PMS5003;64145;55.060;73.168;2023-08-06T02:01:05;27.00;25.00;18.00
73825;PMS5003;64145;55.060;73.168;2023-08-06T02:03:30;29.67;28.33;19.00
73825;PMS5003;64145;55.060;73.168;2023-08-06T02:05:56;26.67;26.67;17.00
73825;PMS5003;64145;55.060;73.168;2023-08-06T02:08:21;24.67;24.67;17.00
73825;PMS5003;64145;55.060;73.168;2023-08-06T02:10:47;23.33;23.33;16.00
73825;PMS5003;64145;55.060;73.168;2023-08-06T02:13:12;22.00;21.00;14.00
73825;PMS5003;64145;55.060;73.168;2023-08-06T02:15:41;20.00;19.00;13.00
73825;PMS5003;64145;55.060;73.168;2023-08-06T02:18:07;18.00;17.00;8.00
73825;PMS5003;64145;55.060;73.168;2023-08-06T02:20:33;21.67;21.67;11.00
73825;PMS5003;64145;55.060;73.168;2023-08-06T02:22:58;23.00;22.67;11.00
73825;PMS5003;64145;55.060;73.168;2023-08-06T02:25:24;20.00;19.00;11.00
73825;PMS5003;64145;55.060;73.168;2023-08-06T02:27:49;18.00;18.00;9.00
73825;PMS5003;64145;55.060;73.168;2023-08-06T02:30:15;21.00;18.33;9.67
73825;PMS5003;64145;55.060;73.168;2023-08-06T02:32:40;22.00;21.00;12.00
73825;PMS5003;64145;55.060;73.168;2023-08-06T02:35:06;21.00;19.00;11.00
73825;PMS5003;64145;55.060;73.168;2023-08-06T02:37:34;20.00;19.00;10.00
73825;PMS5003;64145;55.060;73.168;2023-08-06T02:40:00;17.00;17.00;8.00
73825;PMS5003;64145;55.060;73.168;2023-08-06T02:42:26;19.67;19.00;9.67
73825;PMS5003;64145;55.060;73.168;2023-08-06T02:44:52;20.00;20.00;8.00
73825;PMS5003;64145;55.060;73.168;2023-08-06T02:47:20;20.00;20.00;9.00
73825;PMS5003;64145;55.060;73.168;2023-08-06T02:49:46;19.00;17.33;8.00
73825;PMS5003;64145;55.060;73.168;2023-08-06T02:52:11;19.00;19.00;9.00
73825;PMS5003;64145;55.060;73.168;2023-08-06T02:54:37;21.00;19.00;10.00
73825;PMS5003;64145;55.060;73.168;2023-08-06T02:57:03;19.00;18.00;9.00
73825;PMS5003;64145;55.060;73.168;2023-08-06T02:59:28;20.00;19.00;11.00
73825;PMS5003;64145;55.060;73.168;2023-08-06T03:01:54;21.00;20.00;11.00
73825;PMS5003;64145;55.060;73.168;2023-08-06T03:04:19;21.00;18.00;9.00
73825;PMS5003;64145;55.060;73.168;2023-08-06T03:06:46;20.50;18.25;9.00
73825;PMS5003;64145;55.060;73.168;2023-08-06T03:09:11;20.00;18.00;9.00
73825;PMS5003;64145;55.060;73.168;2023-08-06T03:11:37;19.00;18.00;10.33
73825;PMS5003;64145;55.060;73.168;2023-08-06T03:14:02;20.00;19.00;9.00
73825;PMS5003;64145;55.060;73.168;2023-08-06T03:16:28;20.33;19.00;9.00
73825;PMS5003;64145;55.060;73.168;2023-08-06T03:18:53;19.00;17.67;9.00
73825;PMS5003;64145;55.060;73.168;2023-08-06T03:21:19;20.00;19.00;10.00
73825;PMS5003;64145;55.060;73.168;2023-08-06T03:23:46;20.00;19.00;8.00
73825;PMS5003;64145;55.060;73.168;2023-08-06T03:26:12;23.25;21.00;10.00
73825;PMS5003;64145;55.060;73.168;2023-08-06T03:28:37;20.00;20.00;10.00
73825;PMS5003;64145;55.060;73.168;2023-08-06T03:31:03;19.67;19.00;8.00
73825;PMS5003;64145;55.060;73.168;2023-08-06T03:33:29;18.67;18.00;9.00
73825;PMS5003;64145;55.060;73.168;2023-08-06T03:35:54;18.00;17.00;8.33
73825;PMS5003;64145;55.060;73.168;2023-08-06T03:38:20;19.00;19.00;8.67
73825;PMS5003;64145;55.060;73.168;2023-08-06T03:40:46;18.00;17.00;9.00
73825;PMS5003;64145;55.060;73.168;2023-08-06T03:43:12;19.00;18.00;9.00
73825;PMS5003;64145;55.060;73.168;2023-08-06T03:45:37;21.00;20.00;9.67
73825;PMS5003;64145;55.060;73.168;2023-08-06T03:48:03;20.00;19.00;8.33
73825;PMS5003;64145;55.060;73.168;2023-08-06T03:50:29;21.00;20.00;10.00
73825;PMS5003;64145;55.060;73.168;2023-08-06T03:52:54;19.67;18.67;10.67
73825;PMS5003;64145;55.060;73.168;2023-08-06T03:55:20;19.67;19.00;8.00
73825;PMS5003;64145;55.060;73.168;2023-08-06T03:57:46;19.33;18.33;11.00
73825;PMS5003;64145;55.060;73.168;2023-08-06T04:00:13;21.00;19.75;10.00
73825;PMS5003;64145;55.060;73.168;2023-08-06T04:02:38;20.00;20.00;11.00
73825;PMS5003;64145;55.060;73.168;2023-08-06T04:05:04;19.00;19.00;8.00
73825;PMS5003;64145;55.060;73.168;2023-08-06T04:07:30;19.00;19.00;10.50
73825;PMS5003;64145;55.060;73.168;2023-08-06T04:09:59;17.00;17.00;8.50
73825;PMS5003;64145;55.060;73.168;2023-08-06T04:12:25;19.00;19.00;8.50
73825;PMS5003;64145;55.060;73.168;2023-08-06T04:14:51;19.67;19.33;9.33
73825;PMS5003;64145;55.060;73.168;2023-08-06T04:17:20;19.00;19.00;7.00
73825;PMS5003;64145;55.060;73.168;2023-08-06T04:20:18;19.00;19.00;8.00
73825;PMS5003;64145;55.060;73.168;2023-08-06T04:23:05;18.75;18.00;8.00
73825;PMS5003;64145;55.060;73.168;2023-08-06T04:25:51;19.00;17.00;7.25
73825;PMS5003;64145;55.060;73.168;2023-08-06T04:28:17;18.00;16.00;8.00
73825;PMS5003;64145;55.060;73.168;2023-08-06T04:30:42;20.00;17.00;8.00
73825;PMS5003;64145;55.060;73.168;2023-08-06T04:33:08;20.00;18.00;8.00
73825;PMS5003;64145;55.060;73.168;2023-08-06T04:35:33;17.67;17.67;9.33
73825;PMS5003;64145;55.060;73.168;2023-08-06T04:38:00;20.50;19.00;8.50
73825;PMS5003;64145;55.060;73.168;2023-08-06T04:40:25;21.33;17.33;8.67
73825;PMS5003;64145;55.060;73.168;2023-08-06T04:42:51;21.33;19.00;8.67
73825;PMS5003;64145;55.060;73.168;2023-08-06T04:45:17;18.67;18.00;9.00
73825;PMS5003;64145;55.060;73.168;2023-08-06T04:47:42;20.67;20.67;11.67
73825;PMS5003;64145;55.060;73.168;2023-08-06T04:50:08;19.00;19.00;10.00
73825;PMS5003;64145;55.060;73.168;2023-08-06T04:52:34;18.00;18.00;8.75
73825;PMS5003;64145;55.060;73.168;2023-08-06T04:54:59;17.00;17.00;9.00
73825;PMS5003;64145;55.060;73.168;2023-08-06T04:57:25;17.00;17.00;9.00
73825;PMS5003;64145;55.060;73.168;2023-08-06T04:59:51;14.67;14.67;7.00
73825;PMS5003;64145;55.060;73.168;2023-08-06T05:02:16;19.25;19.25;10.50
73825;PMS5003;64145;55.060;73.168;2023-08-06T05:04:42;20.00;18.00;9.00
73825;PMS5003;64145;55.060;73.168;2023-08-06T05:07:08;23.33;19.33;12.00
73825;PMS5003;64145;55.060;73.168;2023-08-06T05:09:33;22.00;19.00;11.00
73825;PMS5003;64145;55.060;73.168;2023-08-06T05:12:03;21.67;20.67;12.67
73825;PMS5003;64145;55.060;73.168;2023-08-06T05:14:28;23.00;22.00;14.00
73825;PMS5003;64145;55.060;73.168;2023-08-06T05:16:54;23.00;21.00;14.00
73825;PMS5003;64145;55.060;73.168;2023-08-06T05:19:19;23.67;22.67;14.33
73825;PMS5003;64145;55.060;73.168;2023-08-06T05:21:45;23.00;22.00;15.00
73825;PMS5003;64145;55.060;73.168;2023-08-06T05:24:11;23.00;21.00;14.00
73825;PMS5003;64145;55.060;73.168;2023-08-06T05:26:37;28.75;27.25;17.50
73825;PMS5003;64145;55.060;73.168;2023-08-06T05:29:02;31.00;29.00;19.00
73825;PMS5003;64145;55.060;73.168;2023-08-06T05:31:28;29.00;28.00;19.00
73825;PMS5003;64145;55.060;73.168;2023-08-06T05:33:54;28.00;28.00;18.00
73825;PMS5003;64145;55.060;73.168;2023-08-06T05:36:20;29.25;27.25;18.25
73825;PMS5003;64145;55.060;73.168;2023-08-06T05:38:46;26.00;25.25;18.00
73825;PMS5003;64145;55.060;73.168;2023-08-06T05:41:12;30.00;28.25;19.00
73825;PMS5003;64145;55.060;73.168;2023-08-06T05:43:38;29.33;27.00;18.00
73825;PMS5003;64145;55.060;73.168;2023-08-06T05:46:03;25.00;24.67;17.00
73825;PMS5003;64145;55.060;73.168;2023-08-06T05:48:29;24.00;24.00;15.00
73825;PMS5003;64145;55.060;73.168;2023-08-06T05:50:55;30.33;29.00;18.33
73825;PMS5003;64145;55.060;73.168;2023-08-06T05:53:20;31.00;30.00;19.00
73825;PMS5003;64145;55.060;73.168;2023-08-06T05:55:46;30.00;29.00;19.00
73825;PMS5003;64145;55.060;73.168;2023-08-06T05:58:12;29.50;28.75;19.00
73825;PMS5003;64145;55.060;73.168;2023-08-06T06:00:38;33.00;30.00;19.00
73825;PMS5003;64145;55.060;73.168;2023-08-06T06:03:03;33.00;29.00;19.00
73825;PMS5003;64145;55.060;73.168;2023-08-06T06:05:29;28.00;26.00;17.00
73825;PMS5003;64145;55.060;73.168;2023-08-06T06:07:54;27.00;26.33;17.00
73825;PMS5003;64145;55.060;73.168;2023-08-06T06:10:20;28.67;28.67;18.67
73825;PMS5003;64145;55.060;73.168;2023-08-06T06:12:46;27.00;27.00;17.00
73825;PMS5003;64145;55.060;73.168;2023-08-06T06:15:11;40.67;35.67;21.67
73825;PMS5003;64145;55.060;73.168;2023-08-06T06:17:37;47.67;39.67;24.00
73825;PMS5003;64145;55.060;73.168;2023-08-06T06:20:02;49.33;40.67;26.00
73825;PMS5003;64145;55.060;73.168;2023-08-06T06:22:29;38.00;32.50;21.25
73825;PMS5003;64145;55.060;73.168;2023-08-06T06:24:55;34.00;29.00;19.00
73825;PMS5003;64145;55.060;73.168;2023-08-06T06:27:21;42.00;33.25;19.00
73825;PMS5003;64145;55.060;73.168;2023-08-06T06:29:46;34.33;29.00;19.00
73825;PMS5003;64145;55.060;73.168;2023-08-06T06:32:12;31.67;29.00;19.00
73825;PMS5003;64145;55.060;73.168;2023-08-06T06:34:38;28.00;26.67;18.00
73825;PMS5003;64145;55.060;73.168;2023-08-06T06:37:03;28.00;27.00;18.00
73825;PMS5003;64145;55.060;73.168;2023-08-06T06:39:29;27.00;26.00;17.00
73825;PMS5003;64145;55.060;73.168;2023-08-06T06:41:54;26.00;26.00;17.00
73825;PMS5003;64145;55.060;73.168;2023-08-06T06:44:20;26.00;25.00;17.00
73825;PMS5003;64145;55.060;73.168;2023-08-06T06:46:46;25.00;23.00;17.00
73825;PMS5003;64145;55.060;73.168;2023-08-06T06:49:12;26.75;26.50;18.50
73825;PMS5003;64145;55.060;73.168;2023-08-06T06:51:38;27.00;26.00;18.00
73825;PMS5003;64145;55.060;73.168;2023-08-06T06:54:04;28.67;25.67;18.00
73825;PMS5003;64145;55.060;73.168;2023-08-06T06:56:29;26.00;25.00;18.00
73825;PMS5003;64145;55.060;73.168;2023-08-06T06:58:55;25.33;25.33;17.33
73825;PMS5003;64145;55.060;73.168;2023-08-06T07:01:20;25.00;25.00;18.00
73825;PMS5003;64145;55.060;73.168;2023-08-06T07:03:46;26.00;26.00;19.00
73825;PMS5003;64145;55.060;73.168;2023-08-06T07:06:22;30.25;28.00;19.00
73825;PMS5003;64145;55.060;73.168;2023-08-06T07:08:48;29.00;28.00;19.00
73825;PMS5003;64145;55.060;73.168;2023-08-06T07:11:13;27.33;26.33;19.00
73825;PMS5003;64145;55.060;73.168;2023-08-06T07:13:39;25.00;25.00;19.00
73825;PMS5003;64145;55.060;73.168;2023-08-06T07:16:06;25.00;25.00;17.00
73825;PMS5003;64145;55.060;73.168;2023-08-06T07:18:31;25.00;25.00;16.00
73825;PMS5003;64145;55.060;73.168;2023-08-06T07:20:57;24.67;24.67;17.00
73825;PMS5003;64145;55.060;73.168;2023-08-06T07:23:24;26.00;26.00;18.00
73825;PMS5003;64145;55.060;73.168;2023-08-06T07:25:49;28.00;27.00;19.00
73825;PMS5003;64145;55.060;73.168;2023-08-06T07:28:15;28.25;26.25;18.00
73825;PMS5003;64145;55.060;73.168;2023-08-06T07:30:41;28.00;27.00;19.00
73825;PMS5003;64145;55.060;73.168;2023-08-06T07:33:07;26.75;26.00;19.00
73825;PMS5003;64145;55.060;73.168;2023-08-06T07:35:33;25.00;25.00;18.00
73825;PMS5003;64145;55.060;73.168;2023-08-06T07:37:58;28.00;26.00;17.00
73825;PMS5003;64145;55.060;73.168;2023-08-06T07:40:24;28.00;25.33;17.33
73825;PMS5003;64145;55.060;73.168;2023-08-06T07:42:49;29.00;26.00;18.00
73825;PMS5003;64145;55.060;73.168;2023-08-06T07:45:15;28.00;26.00;17.00
73825;PMS5003;64145;55.060;73.168;2023-08-06T07:47:41;29.00;26.00;17.00
73825;PMS5003;64145;55.060;73.168;2023-08-06T07:50:09;29.00;27.50;17.00
73825;PMS5003;64145;55.060;73.168;2023-08-06T07:52:35;29.50;28.50;19.00
73825;PMS5003;64145;55.060;73.168;2023-08-06T07:55:00;29.00;28.00;19.00
73825;PMS5003;64145;55.060;73.168;2023-08-06T07:57:33;28.50;27.50;19.00
73825;PMS5003;64145;55.060;73.168;2023-08-06T07:59:59;24.25;24.00;18.00
73825;PMS5003;64145;55.060;73.168;2023-08-06T08:02:25;26.50;25.50;17.00
73825;PMS5003;64145;55.060;73.168;2023-08-06T08:04:51;30.00;28.33;19.00
73825;PMS5003;64145;55.060;73.168;2023-08-06T08:07:16;30.33;28.33;19.67
73825;PMS5003;64145;55.060;73.168;2023-08-06T08:09:42;29.00;27.33;20.00
73825;PMS5003;64145;55.060;73.168;2023-08-06T08:12:07;27.67;25.67;19.00
73825;PMS5003;64145;55.060;73.168;2023-08-06T08:14:33;27.00;26.33;19.00
73825;PMS5003;64145;55.060;73.168;2023-08-06T08:17:04;25.00;25.00;18.00
73825;PMS5003;64145;55.060;73.168;2023-08-06T08:19:31;27.00;26.00;19.00
73825;PMS5003;64145;55.060;73.168;2023-08-06T08:21:56;28.33;27.33;19.00
73825;PMS5003;64145;55.060;73.168;2023-08-06T08:24:22;29.67;29.00;20.00
73825;PMS5003;64145;55.060;73.168;2023-08-06T08:26:50;29.00;27.75;19.00
73825;PMS5003;64145;55.060;73.168;2023-08-06T08:29:16;28.00;26.75;19.00
73825;PMS5003;64145;55.060;73.168;2023-08-06T08:31:42;29.00;27.00;20.00
73825;PMS5003;64145;55.060;73.168;2023-08-06T08:34:08;28.00;26.00;19.00
73825;PMS5003;64145;55.060;73.168;2023-08-06T08:36:34;26.33;25.33;19.33
73825;PMS5003;64145;55.060;73.168;2023-08-06T08:39:00;24.33;23.00;17.33
73825;PMS5003;64145;55.060;73.168;2023-08-06T08:41:30;26.25;25.25;18.25
73825;PMS5003;64145;55.060;73.168;2023-08-06T08:43:56;32.67;31.00;21.00
73825;PMS5003;64145;55.060;73.168;2023-08-06T08:46:24;31.00;30.00;21.00
73825;PMS5003;64145;55.060;73.168;2023-08-06T08:48:51;29.50;29.00;19.00
73825;PMS5003;64145;55.060;73.168;2023-08-06T08:51:17;28.00;28.00;20.00
73825;PMS5003;64145;55.060;73.168;2023-08-06T08:53:43;27.00;25.00;19.00
73825;PMS5003;64145;55.060;73.168;2023-08-06T08:56:09;34.50;30.75;21.00
73825;PMS5003;64145;55.060;73.168;2023-08-06T08:58:36;29.75;27.00;19.25
73825;PMS5003;64145;55.060;73.168;2023-08-06T09:01:02;25.33;24.33;17.00
73825;PMS5003;64145;55.060;73.168;2023-08-06T09:03:28;25.25;24.00;18.00
73825;PMS5003;64145;55.060;73.168;2023-08-06T09:05:54;25.00;24.00;18.00
73825;PMS5003;64145;55.060;73.168;2023-08-06T09:08:21;24.00;23.00;18.00
73825;PMS5003;64145;55.060;73.168;2023-08-06T09:10:49;25.00;23.00;17.00
73825;PMS5003;64145;55.060;73.168;2023-08-06T09:13:15;25.25;23.00;17.00
73825;PMS5003;64145;55.060;73.168;2023-08-06T09:15:41;30.25;29.75;19.50
73825;PMS5003;64145;55.060;73.168;2023-08-06T09:18:12;35.00;31.00;19.00
73825;PMS5003;64145;55.060;73.168;2023-08-06T09:20:40;33.75;31.00;19.75
73825;PMS5003;64145;55.060;73.168;2023-08-06T09:23:09;27.00;25.00;18.00
73825;PMS5003;64145;55.060;73.168;2023-08-06T09:25:37;25.00;24.00;17.00
73825;PMS5003;64145;55.060;73.168;2023-08-06T09:28:04;31.50;30.00;21.00
73825;PMS5003;64145;55.060;73.168;2023-08-06T09:30:30;28.00;28.00;19.00
73825;PMS5003;64145;55.060;73.168;2023-08-06T09:32:59;28.00;27.00;18.00
73825;PMS5003;64145;55.060;73.168;2023-08-06T09:35:25;29.00;27.00;18.67
73825;PMS5003;64145;55.060;73.168;2023-08-06T09:37:50;27.33;27.00;18.00
73825;PMS5003;64145;55.060;73.168;2023-08-06T09:40:34;26.00;26.00;16.00
73825;PMS5003;64145;55.060;73.168;2023-08-06T09:42:59;26.00;25.00;17.00
73825;PMS5003;64145;55.060;73.168;2023-08-06T09:45:28;29.00;27.00;18.00
73825;PMS5003;64145;55.060;73.168;2023-08-06T09:47:55;28.00;25.50;18.50
73825;PMS5003;64145;55.060;73.168;2023-08-06T09:50:21;28.25;26.25;17.50
73825;PMS5003;64145;55.060;73.168;2023-08-06T09:52:47;26.67;25.67;18.67
73825;PMS5003;64145;55.060;73.168;2023-08-06T09:55:15;26.25;25.50;18.00
73825;PMS5003;64145;55.060;73.168;2023-08-06T09:57:41;24.00;23.00;18.00
73825;PMS5003;64145;55.060;73.168;2023-08-06T10:00:11;25.00;23.00;16.00
73825;PMS5003;64145;55.060;73.168;2023-08-06T10:02:37;22.75;20.00;15.00
73825;PMS5003;64145;55.060;73.168;2023-08-06T10:05:04;23.00;23.00;14.25
73825;PMS5003;64145;55.060;73.168;2023-08-06T10:07:30;21.00;20.25;14.00
73825;PMS5003;64145;55.060;73.168;2023-08-06T10:09:56;21.00;20.00;14.33
73825;PMS5003;64145;55.060;73.168;2023-08-06T10:12:22;23.00;22.00;16.00
73825;PMS5003;64145;55.060;73.168;2023-08-06T10:14:50;24.50;23.00;17.00
73825;PMS5003;64145;55.060;73.168;2023-08-06T10:17:19;21.50;20.50;15.50
73825;PMS5003;64145;55.060;73.168;2023-08-06T10:19:45;19.00;19.00;11.25
73825;PMS5003;64145;55.060;73.168;2023-08-06T10:22:15;19.25;19.25;11.00
73825;PMS5003;64145;55.060;73.168;2023-08-06T10:24:56;17.00;17.00;9.00
73825;PMS5003;64145;55.060;73.168;2023-08-06T10:27:23;20.75;20.75;11.00
73825;PMS5003;64145;55.060;73.168;2023-08-06T10:29:53;21.00;21.00;9.00
73825;PMS5003;64145;55.060;73.168;2023-08-06T10:32:18;23.00;22.00;11.00
73825;PMS5003;64145;55.060;73.168;2023-08-06T10:34:53;24.67;23.67;14.00
73825;PMS5003;64145;55.060;73.168;2023-08-06T10:37:20;26.75;25.50;16.00
73825;PMS5003;64145;55.060;73.168;2023-08-06T10:39:51;22.50;22.00;15.00
73825;PMS5003;64145;55.060;73.168;2023-08-06T10:42:20;20.00;19.75;15.00
73825;PMS5003;64145;55.060;73.168;2023-08-06T10:45:31;19.75;19.00;13.00
73825;PMS5003;64145;55.060;73.168;2023-08-06T10:47:37;19.50;19.00;11.00
73825;PMS5003;64145;55.060;73.168;2023-08-06T10:50:03;20.75;19.00;9.00
73825;PMS5003;64145;55.060;73.168;2023-08-06T10:52:29;20.00;18.00;9.00
73825;PMS5003;64145;55.060;73.168;2023-08-06T10:54:55;23.00;19.00;11.00
73825;PMS5003;64145;55.060;73.168;2023-08-06T10:57:20;19.00;18.00;9.33
73825;PMS5003;64145;55.060;73.168;2023-08-06T10:59:46;17.33;17.33;8.33
73825;PMS5003;64145;55.060;73.168;2023-08-06T11:02:12;16.00;16.00;8.00
73825;PMS5003;64145;55.060;73.168;2023-08-06T11:04:38;14.00;14.00;6.00
73825;PMS5003;64145;55.060;73.168;2023-08-06T11:07:04;14.00;14.00;7.00
73825;PMS5003;64145;55.060;73.168;2023-08-06T11:09:32;16.00;15.75;8.00
73825;PMS5003;64145;55.060;73.168;2023-08-06T11:11:57;16.00;15.00;7.00
73825;PMS5003;64145;55.060;73.168;2023-08-06T11:14:23;16.00;14.00;6.00
73825;PMS5003;64145;55.060;73.168;2023-08-06T11:16:49;18.00;16.33;9.00
73825;PMS5003;64145;55.060;73.168;2023-08-06T11:19:16;20.00;18.00;9.00
73825;PMS5003;64145;55.060;73.168;2023-08-06T11:21:42;20.00;17.00;8.00
73825;PMS5003;64145;55.060;73.168;2023-08-06T11:24:12;18.25;16.25;9.00
73825;PMS5003;64145;55.060;73.168;2023-08-06T11:26:37;16.25;16.00;8.00
73825;PMS5003;64145;55.060;73.168;2023-08-06T11:29:05;16.00;16.00;9.00
73825;PMS5003;64145;55.060;73.168;2023-08-06T11:31:31;17.00;16.00;7.00
73825;PMS5003;64145;55.060;73.168;2023-08-06T11:33:56;20.00;20.00;10.00
73825;PMS5003;64145;55.060;73.168;2023-08-06T11:36:31;20.67;20.00;9.33
73825;PMS5003;64145;55.060;73.168;2023-08-06T11:39:12;22.25;19.75;12.75
73825;PMS5003;64145;55.060;73.168;2023-08-06T11:41:37;21.67;20.00;11.00
73825;PMS5003;64145;55.060;73.168;2023-08-06T11:44:04;20.50;19.50;9.00
73825;PMS5003;64145;55.060;73.168;2023-08-06T11:46:49;20.00;20.00;10.00
73825;PMS5003;64145;55.060;73.168;2023-08-06T11:49:15;17.00;16.00;7.00
73825;PMS5003;64145;55.060;73.168;2023-08-06T11:51:41;17.67;14.67;6.67
73825;PMS5003;64145;55.060;73.168;2023-08-06T11:54:07;18.00;14.00;7.00
73825;PMS5003;64145;55.060;73.168;2023-08-06T11:56:33;19.25;17.50;6.75
73825;PMS5003;64145;55.060;73.168;2023-08-06T11:59:00;16.50;15.50;6.00
73825;PMS5003;64145;55.060;73.168;2023-08-06T12:01:26;10.67;10.00;5.67
73825;PMS5003;64145;55.060;73.168;2023-08-06T12:03:51;9.67;9.67;6.33
73825;PMS5003;64145;55.060;73.168;2023-08-06T12:06:17;10.67;10.67;7.00
73825;PMS5003;64145;55.060;73.168;2023-08-06T12:08:43;11.00;11.00;6.33
73825;PMS5003;64145;55.060;73.168;2023-08-06T12:11:10;10.00;9.00;3.00
73825;PMS5003;64145;55.060;73.168;2023-08-06T12:13:35;11.00;10.00;4.67
73825;PMS5003;64145;55.060;73.168;2023-08-06T12:16:01;9.00;9.00;6.00
73825;PMS5003;64145;55.060;73.168;2023-08-06T12:18:27;15.33;15.00;7.00
73825;PMS5003;64145;55.060;73.168;2023-08-06T12:20:52;12.00;12.00;5.67
73825;PMS5003;64145;55.060;73.168;2023-08-06T12:23:18;8.00;8.00;4.00
73825;PMS5003;64145;55.060;73.168;2023-08-06T12:25:44;6.67;6.33;3.33
73825;PMS5003;64145;55.060;73.168;2023-08-06T12:28:10;7.00;7.00;4.00
73825;PMS5003;64145;55.060;73.168;2023-08-06T12:30:39;6.00;6.00;3.75
73825;PMS5003;64145;55.060;73.168;2023-08-06T12:33:07;8.50;8.50;4.75
73825;PMS5003;64145;55.060;73.168;2023-08-06T12:35:34;11.50;11.50;6.50
73825;PMS5003;64145;55.060;73.168;2023-08-06T12:38:00;15.00;15.00;8.67
73825;PMS5003;64145;55.060;73.168;2023-08-06T12:40:25;22.33;22.33;11.33
73825;PMS5003;64145;55.060;73.168;2023-08-06T12:42:51;19.00;19.00;11.00
73825;PMS5003;64145;55.060;73.168;2023-08-06T12:45:17;17.33;17.33;8.00
73825;PMS5003;64145;55.060;73.168;2023-08-06T12:47:42;14.00;13.33;5.00
73825;PMS5003;64145;55.060;73.168;2023-08-06T12:50:08;13.00;12.00;5.33
73825;PMS5003;64145;55.060;73.168;2023-08-06T12:52:34;17.50;16.50;7.50
73825;PMS5003;64145;55.060;73.168;2023-08-06T12:55:00;25.00;24.25;14.00
73825;PMS5003;64145;55.060;73.168;2023-08-06T12:57:26;24.33;22.33;15.00
73825;PMS5003;64145;55.060;73.168;2023-08-06T12:59:54;21.00;20.00;13.75
73825;PMS5003;64145;55.060;73.168;2023-08-06T13:02:20;17.00;17.00;12.33
73825;PMS5003;64145;55.060;73.168;2023-08-06T13:04:46;13.00;13.00;6.00
73825;PMS5003;64145;55.060;73.168;2023-08-06T13:07:11;30.50;29.25;14.50
73825;PMS5003;64145;55.060;73.168;2023-08-06T13:09:37;26.00;24.67;15.00
73825;PMS5003;64145;55.060;73.168;2023-08-06T13:12:02;22.00;21.00;13.00
73825;PMS5003;64145;55.060;73.168;2023-08-06T13:14:31;21.00;21.00;12.00
73825;PMS5003;64145;55.060;73.168;2023-08-06T13:16:56;18.00;18.00;9.00
73825;PMS5003;64145;55.060;73.168;2023-08-06T13:19:23;16.00;16.00;5.25
73825;PMS5003;64145;55.060;73.168;2023-08-06T13:24:17;9.00;8.00;5.00
73825;PMS5003;64145;55.060;73.168;2023-08-06T13:26:43;12.00;10.00;7.00
73825;PMS5003;64145;55.060;73.168;2023-08-06T13:29:08;11.00;9.00;5.00
73825;PMS5003;64145;55.060;73.168;2023-08-06T13:31:35;13.67;10.00;6.00
73825;PMS5003;64145;55.060;73.168;2023-08-06T13:34:00;19.00;17.75;9.50
73825;PMS5003;64145;55.060;73.168;2023-08-06T13:36:26;19.67;18.00;9.00
73825;PMS5003;64145;55.060;73.168;2023-08-06T13:38:52;17.50;17.50;8.00